createdAt,value
2023-01-12T00:00:53.922Z,44.88
2023-01-12T00:03:20.663Z,44.60
2023-01-12T00:05:47.438Z,44.26
2023-01-12T00:08:14.119Z,44.32
2023-01-12T00:10:40.822Z,44.26
2023-01-12T00:13:07.543Z,44.07
2023-01-12T00:15:55.173Z,44.02
2023-01-12T00:18:22.016Z,44.27
2023-01-12T00:20:48.930Z,44.31
2023-01-12T00:23:15.636Z,44.43
2023-01-12T00:25:42.356Z,44.22
2023-01-12T00:28:09.077Z,44.14
2023-01-12T00:30:35.832Z,44.36
2023-01-12T00:33:02.588Z,44.57
2023-01-12T00:35:29.325Z,44.42
2023-01-12T00:37:56.123Z,44.85
2023-01-12T00:40:22.933Z,45.01
2023-01-12T00:42:59.342Z,44.66
2023-01-12T00:45:26.102Z,44.89
2023-01-12T00:53:43.193Z,44.83
2023-01-12T00:56:09.996Z,45.13
2023-01-12T00:58:36.921Z,44.95
2023-01-12T01:01:04.954Z,45.10
2023-01-12T01:03:31.861Z,45.35
2023-01-12T01:06:08.818Z,45.50
2023-01-12T01:08:37.177Z,45.40
2023-01-12T01:11:05.715Z,45.50
2023-01-12T01:13:32.565Z,45.54
2023-01-12T01:16:00.827Z,45.77
2023-01-12T01:18:28.362Z,46.01
2023-01-12T01:20:55.550Z,46.07
2023-01-12T01:23:22.893Z,46.57
2023-01-12T01:25:49.997Z,46.26
2023-01-12T01:28:17.746Z,46.67
2023-01-12T01:30:45.202Z,46.80
2023-01-12T01:33:12.302Z,46.57
2023-01-12T01:35:39.207Z,46.85
2023-01-12T01:38:06.466Z,46.96
2023-01-12T01:40:33.827Z,46.93
2023-01-12T01:43:00.770Z,47.23
2023-01-12T01:45:27.964Z,47.38
2023-01-12T01:47:57.671Z,47.11
2023-01-12T01:50:28.945Z,47.22
2023-01-12T01:52:58.653Z,47.17
2023-01-12T01:55:28.013Z,47.54
2023-01-12T01:57:57.138Z,47.49
2023-01-12T02:00:24.641Z,47.58
2023-01-12T02:02:52.055Z,47.35
2023-01-12T02:05:21.423Z,47.46
2023-01-12T02:07:49.193Z,47.83
2023-01-12T02:10:16.396Z,47.67
2023-01-12T02:12:52.398Z,47.93
2023-01-12T02:15:29.527Z,47.81
2023-01-12T02:17:57.533Z,48.00
2023-01-12T02:20:34.452Z,48.29
2023-01-12T02:23:02.463Z,48.11
2023-01-12T02:25:38.763Z,48.65
2023-01-12T02:28:17.247Z,48.35
2023-01-12T02:30:53.686Z,48.57
2023-01-12T02:33:21.685Z,48.81
2023-01-12T02:35:48.751Z,48.47
2023-01-12T02:38:22.221Z,48.73
2023-01-12T02:40:59.599Z,48.70
2023-01-12T02:43:28.934Z,48.63
2023-01-12T02:46:05.878Z,48.91
2023-01-12T02:48:38.958Z,48.91
2023-01-12T02:51:08.768Z,48.95
2023-01-12T02:53:43.502Z,49.11
2023-01-12T02:56:11.162Z,48.86
2023-01-12T02:58:41.016Z,48.89
2023-01-12T03:01:09.868Z,48.98
2023-01-12T03:03:39.946Z,49.06
2023-01-12T03:06:07.714Z,49.34
2023-01-12T03:08:37.364Z,49.60
2023-01-12T03:11:15.012Z,49.56
2023-01-12T03:13:44.876Z,49.76
2023-01-12T03:16:13.393Z,49.54
2023-01-12T03:18:49.831Z,50.00
2023-01-12T03:21:24.074Z,50.22
2023-01-12T03:23:55.697Z,50.33
2023-01-12T03:26:25.772Z,50.53
2023-01-12T03:28:55.602Z,50.39
2023-01-12T03:31:23.835Z,50.62
2023-01-12T03:33:51.312Z,50.36
2023-01-12T03:36:28.939Z,50.90
2023-01-12T03:39:05.659Z,51.05
2023-01-12T03:41:40.951Z,51.14
2023-01-12T03:44:13.036Z,51.29
2023-01-12T03:46:43.904Z,51.38
2023-01-12T03:49:16.501Z,51.42
2023-01-12T03:51:45.605Z,51.34
2023-01-12T03:54:14.690Z,51.29
2023-01-12T03:56:42.691Z,51.47
2023-01-12T03:59:09.904Z,51.38
2023-01-12T04:01:37.201Z,51.82
2023-01-12T04:04:04.521Z,51.73
2023-01-12T04:06:31.288Z,51.73
2023-01-12T04:08:58.071Z,51.93
2023-01-12T04:11:34.711Z,51.87
2023-01-12T04:14:01.437Z,51.84
2023-01-12T04:16:28.241Z,51.92
2023-01-12T04:18:55.048Z,52.22
2023-01-12T04:21:31.482Z,52.19
2023-01-12T04:23:58.757Z,52.23
2023-01-12T04:26:25.498Z,51.85
2023-01-12T04:28:52.322Z,52.23
2023-01-12T04:31:19.173Z,52.18
2023-01-12T04:33:46.047Z,52.47
2023-01-12T04:36:12.930Z,52.03
2023-01-12T04:38:40.417Z,52.09
2023-01-12T04:41:07.646Z,52.30
2023-01-12T04:43:35.114Z,52.67
2023-01-12T04:46:11.650Z,52.73
2023-01-12T04:48:39.420Z,52.40
2023-01-12T04:51:06.471Z,52.36
2023-01-12T04:53:33.364Z,52.38
2023-01-12T04:56:03.121Z,52.51
2023-01-12T04:58:29.937Z,52.85
2023-01-12T05:00:56.757Z,52.92
2023-01-12T05:03:23.516Z,52.57
2023-01-12T05:05:50.406Z,52.97
2023-01-12T05:08:26.652Z,52.76
2023-01-12T05:10:55.039Z,52.94
2023-01-12T05:13:22.432Z,52.86
2023-01-12T05:15:49.145Z,53.18
2023-01-12T05:18:16.168Z,53.04
2023-01-12T05:20:42.949Z,53.33
2023-01-12T05:23:09.770Z,53.46
2023-01-12T05:25:36.601Z,53.08
2023-01-12T05:28:03.627Z,53.18
2023-01-12T05:30:32.076Z,53.25
2023-01-12T05:32:59.058Z,53.60
2023-01-12T05:35:25.895Z,53.79
2023-01-12T05:37:54.856Z,53.91
2023-01-12T05:40:21.655Z,53.54
2023-01-12T05:43:00.391Z,53.59
2023-01-12T05:45:27.236Z,54.74
2023-01-12T05:47:58.215Z,54.91
2023-01-12T05:50:25.006Z,55.16
2023-01-12T05:52:52.712Z,55.16
2023-01-12T05:55:19.730Z,55.50
2023-01-12T05:57:46.559Z,55.37
2023-01-12T06:00:13.673Z,55.39
2023-01-12T06:02:40.476Z,55.42
2023-01-12T06:05:09.768Z,55.71
2023-01-12T06:07:37.379Z,55.88
2023-01-12T06:10:05.625Z,55.72
2023-01-12T06:12:42.383Z,55.84
2023-01-12T06:15:09.528Z,55.86
2023-01-12T06:17:36.342Z,55.50
2023-01-12T06:20:03.295Z,55.70
2023-01-12T06:22:30.174Z,55.30
2023-01-12T06:24:56.922Z,55.42
2023-01-12T06:27:23.782Z,55.07
2023-01-12T06:29:50.556Z,55.01
2023-01-12T06:32:17.374Z,55.35
2023-01-12T06:34:44.211Z,55.16
2023-01-12T06:37:13.387Z,54.77
2023-01-12T06:39:40.221Z,54.40
2023-01-12T06:42:16.521Z,53.99
2023-01-12T06:44:43.357Z,53.96
2023-01-12T06:47:10.121Z,53.90
2023-01-12T06:49:36.972Z,53.80
2023-01-12T06:52:03.987Z,53.96
2023-01-12T06:54:31.398Z,53.85
2023-01-12T06:56:58.227Z,53.25
2023-01-12T06:59:25.064Z,53.37
2023-01-12T07:01:52.020Z,52.98
2023-01-12T07:04:18.962Z,52.54
2023-01-12T07:06:45.982Z,52.73
2023-01-12T07:09:12.819Z,52.56
2023-01-12T07:11:39.647Z,52.13
2023-01-12T07:14:09.036Z,51.91
2023-01-12T07:16:36.166Z,51.82
2023-01-12T07:19:02.997Z,52.11
2023-01-12T07:21:29.880Z,51.90
2023-01-12T07:23:56.662Z,51.68
2023-01-12T07:26:23.508Z,51.38
2023-01-12T07:28:50.355Z,51.55
2023-01-12T07:31:19.636Z,51.01
2023-01-12T07:33:46.574Z,51.29
2023-01-12T07:36:13.715Z,51.26
2023-01-12T07:38:42.424Z,51.03
2023-01-12T07:41:29.179Z,51.25
2023-01-12T07:43:56.330Z,51.05
2023-01-12T07:46:23.426Z,51.10
2023-01-12T07:48:50.525Z,50.88
2023-01-12T07:51:17.367Z,49.13
2023-01-12T07:53:44.294Z,49.73
2023-01-12T07:56:13.917Z,49.78
2023-01-12T07:58:40.811Z,49.44
2023-01-12T08:01:07.863Z,49.70
2023-01-12T08:03:34.781Z,49.56
2023-01-12T08:06:01.827Z,49.41
2023-01-12T08:08:28.732Z,49.71
2023-01-12T08:10:55.640Z,49.50
2023-01-12T08:13:25.957Z,49.65
2023-01-12T08:15:53.929Z,49.50
2023-01-12T08:18:24.795Z,49.24
2023-01-12T08:20:52.667Z,49.46
2023-01-12T08:23:23.924Z,49.37
2023-01-12T08:25:56.725Z,49.39
2023-01-12T08:28:28.265Z,49.61
2023-01-12T08:30:55.381Z,49.31
2023-01-12T08:33:22.548Z,49.07
2023-01-12T08:35:49.929Z,49.58
2023-01-12T08:38:16.932Z,49.42
2023-01-12T08:40:53.538Z,48.93
2023-01-12T08:43:40.529Z,48.75
2023-01-12T08:46:08.706Z,48.84
2023-01-12T08:48:36.334Z,48.53
2023-01-12T08:51:04.683Z,48.45
2023-01-12T08:53:32.164Z,48.50
2023-01-12T08:55:59.262Z,48.37
2023-01-12T08:58:26.563Z,48.40
2023-01-12T09:00:54.068Z,48.33
2023-01-12T09:03:21.591Z,48.39
2023-01-12T09:05:49.439Z,48.17
2023-01-12T09:08:16.382Z,47.72
2023-01-12T09:10:43.261Z,47.67
2023-01-12T09:13:15.961Z,48.09
2023-01-12T09:15:48.164Z,48.03
2023-01-12T09:18:20.436Z,47.67
2023-01-12T09:20:47.480Z,47.91
2023-01-12T09:23:14.518Z,48.21
2023-01-12T09:25:41.483Z,47.85
2023-01-12T09:28:15.988Z,47.67
2023-01-12T09:30:43.007Z,47.89
2023-01-12T09:33:10.240Z,47.84
2023-01-12T09:35:37.184Z,47.76
2023-01-12T09:38:06.257Z,48.10
2023-01-12T09:40:35.754Z,48.09
2023-01-12T09:43:12.679Z,47.92
2023-01-12T09:45:49.667Z,48.10
2023-01-12T09:48:19.015Z,48.12
2023-01-12T09:50:55.555Z,48.03
2023-01-12T09:53:22.930Z,47.85
2023-01-12T09:55:51.210Z,48.18
2023-01-12T09:58:23.370Z,48.17
2023-01-12T10:00:52.173Z,48.28
2023-01-12T10:03:30.330Z,48.21
2023-01-12T10:06:00.806Z,48.35
2023-01-12T10:08:32.539Z,48.24
2023-01-12T10:11:05.891Z,48.27
2023-01-12T10:13:43.087Z,48.26
2023-01-12T10:16:18.524Z,48.10
2023-01-12T10:18:48.475Z,48.11
2023-01-12T10:21:15.565Z,48.13
2023-01-12T10:23:42.952Z,48.12
2023-01-12T10:26:19.872Z,48.30
2023-01-12T10:28:47.510Z,48.51
2023-01-12T10:31:20.471Z,48.51
2023-01-12T10:33:56.949Z,48.30
2023-01-12T10:36:25.828Z,48.35
2023-01-12T10:38:53.043Z,48.53
2023-01-12T10:41:21.430Z,48.57
2023-01-12T10:43:55.828Z,48.38
2023-01-12T10:46:24.563Z,48.55
2023-01-12T10:48:55.489Z,48.74
2023-01-12T10:51:25.541Z,48.63
2023-01-12T10:53:57.548Z,48.96
2023-01-12T10:56:27.151Z,48.97
2023-01-12T10:58:56.782Z,48.96
2023-01-12T11:01:23.988Z,49.00
2023-01-12T11:03:51.147Z,49.36
2023-01-12T11:06:25.565Z,49.18
2023-01-12T11:08:52.763Z,49.22
2023-01-12T11:11:28.886Z,49.47
2023-01-12T11:13:58.046Z,49.36
2023-01-12T11:16:32.594Z,49.57
2023-01-12T11:19:09.826Z,49.43
2023-01-12T11:21:38.531Z,49.40
2023-01-12T11:24:10.981Z,49.46
2023-01-12T11:26:43.245Z,49.85
2023-01-12T11:29:19.739Z,50.10
2023-01-12T11:31:48.989Z,49.91
2023-01-12T11:34:18.786Z,50.13
2023-01-12T11:36:56.098Z,50.49
2023-01-12T11:39:24.159Z,50.80
2023-01-12T11:42:01.586Z,50.49
2023-01-12T11:44:47.864Z,50.67
2023-01-12T11:47:15.641Z,50.86
2023-01-12T11:49:48.136Z,51.12
2023-01-12T11:52:16.731Z,51.21
2023-01-12T11:54:43.836Z,51.17
2023-01-12T11:57:13.983Z,51.17
2023-01-12T11:59:44.029Z,51.33
2023-01-12T12:02:14.127Z,51.46
2023-01-12T12:04:44.378Z,51.32
2023-01-12T12:07:20.192Z,51.41
2023-01-12T12:09:50.353Z,51.66
2023-01-12T12:12:27.591Z,52.02
2023-01-12T12:14:57.823Z,52.19
2023-01-12T12:17:28.517Z,52.26
2023-01-12T12:20:03.901Z,52.44
2023-01-12T12:22:34.039Z,52.31
2023-01-12T12:25:06.098Z,52.34
2023-01-12T12:27:36.477Z,52.29
2023-01-12T12:30:03.797Z,52.38
2023-01-12T12:32:33.917Z,52.18
2023-01-12T12:35:09.790Z,51.87
2023-01-12T12:37:37.362Z,52.02
2023-01-12T12:40:12.953Z,51.77
2023-01-12T12:42:48.386Z,52.18
2023-01-12T12:45:16.840Z,51.80
2023-01-12T12:47:46.856Z,51.55
2023-01-12T12:50:21.251Z,51.58
2023-01-12T12:52:52.873Z,51.57
2023-01-12T12:55:19.995Z,51.39
2023-01-12T12:57:50.057Z,51.16
2023-01-12T13:00:20.294Z,51.02
2023-01-12T13:02:50.537Z,51.42
2023-01-12T13:05:37.522Z,51.08
2023-01-12T13:08:05.637Z,50.76
2023-01-12T13:10:32.662Z,50.75
2023-01-12T13:13:02.797Z,50.52
2023-01-12T13:15:32.999Z,50.46
2023-01-12T13:18:01.448Z,50.28
2023-01-12T13:20:31.578Z,50.51
2023-01-12T13:22:59.094Z,50.23
2023-01-12T13:25:27.976Z,50.46
2023-01-12T13:27:58.141Z,49.88
2023-01-12T13:33:38.880Z,50.05
2023-01-12T13:36:10.209Z,50.00
2023-01-12T13:38:40.669Z,49.77
2023-01-12T13:41:10.819Z,49.84
2023-01-12T13:43:39.828Z,49.36
2023-01-12T13:46:14.447Z,49.59
2023-01-12T13:48:46.246Z,49.52
2023-01-12T13:51:16.241Z,49.41
2023-01-12T13:53:43.272Z,49.18
2023-01-12T13:56:13.351Z,49.17
2023-01-12T13:58:41.606Z,48.94
2023-01-12T14:01:17.969Z,49.06
2023-01-12T14:03:48.331Z,48.59
2023-01-12T14:06:22.918Z,48.93
2023-01-12T14:08:56.932Z,48.85
2023-01-12T14:11:27.069Z,48.38
2023-01-12T14:13:54.380Z,48.90
2023-01-12T14:16:25.701Z,48.58
2023-01-12T14:18:53.011Z,48.86
2023-01-12T14:21:23.195Z,48.39
2023-01-12T14:23:50.442Z,48.37
2023-01-12T14:26:23.212Z,48.73
2023-01-12T14:28:51.505Z,48.54
2023-01-12T14:31:22.619Z,48.76
2023-01-12T14:33:51.837Z,48.49
2023-01-12T14:36:22.017Z,49.00
2023-01-12T14:38:49.701Z,48.76
2023-01-12T14:41:22.022Z,49.08
2023-01-12T14:43:55.507Z,49.15
2023-01-12T14:46:26.083Z,49.21
2023-01-12T14:48:56.388Z,49.56
2023-01-12T14:51:23.702Z,49.61
2023-01-12T14:53:56.403Z,49.66
2023-01-12T14:56:25.879Z,49.65
2023-01-12T14:58:53.300Z,49.50
2023-01-12T15:01:23.565Z,49.48
2023-01-12T15:03:51.226Z,49.39
2023-01-12T15:06:18.307Z,49.22
2023-01-12T15:08:48.473Z,49.67
2023-01-12T15:11:15.983Z,49.66
2023-01-12T15:13:43.044Z,49.76
2023-01-12T15:16:13.298Z,49.82
2023-01-12T15:18:43.526Z,49.42
2023-01-12T15:21:13.963Z,49.72
2023-01-12T15:23:44.236Z,49.50
2023-01-12T15:26:11.423Z,49.57
2023-01-12T15:28:38.628Z,49.68
2023-01-12T15:31:05.872Z,50.02
2023-01-12T15:33:32.990Z,50.09
2023-01-12T15:36:00.230Z,49.90
2023-01-12T15:38:29.441Z,49.77
2023-01-12T15:40:56.742Z,49.86
2023-01-12T15:43:24.284Z,49.75
2023-01-12T15:45:51.922Z,49.87
2023-01-12T15:48:19.681Z,50.08
2023-01-12T15:50:47.291Z,50.12
2023-01-12T15:53:17.463Z,49.95
2023-01-12T15:55:44.686Z,50.08
2023-01-12T15:58:11.815Z,50.27
2023-01-12T16:00:39.532Z,49.70
2023-01-12T16:03:07.100Z,50.09
2023-01-12T16:05:34.379Z,49.81
2023-01-12T16:08:01.636Z,49.76
2023-01-12T16:10:30.671Z,49.45
2023-01-12T16:12:59.971Z,49.24
2023-01-12T16:15:30.676Z,49.55
2023-01-12T16:17:58.840Z,49.10
2023-01-12T16:20:26.015Z,49.31
2023-01-12T16:22:53.300Z,48.81
2023-01-12T16:25:20.523Z,48.57
2023-01-12T16:27:48.034Z,48.84
2023-01-12T16:30:16.135Z,48.24
2023-01-12T16:32:47.250Z,48.26
2023-01-12T16:35:15.899Z,47.92
2023-01-12T16:37:43.312Z,47.78
2023-01-12T16:40:11.540Z,47.77
2023-01-12T16:42:38.716Z,47.62
2023-01-12T16:45:06.732Z,47.43
2023-01-12T16:47:34.018Z,47.30
2023-01-12T16:50:01.143Z,47.17
2023-01-12T16:52:28.667Z,46.95
2023-01-12T16:54:56.072Z,46.86
2023-01-12T16:57:23.351Z,46.80
2023-01-12T16:59:51.544Z,46.53
2023-01-12T17:02:19.582Z,46.46
2023-01-12T17:04:49.427Z,46.51
2023-01-12T17:07:16.825Z,46.27
2023-01-12T17:09:44.500Z,46.36
2023-01-12T17:12:12.091Z,46.34
2023-01-12T17:14:39.489Z,46.05
2023-01-12T17:17:08.787Z,46.11
2023-01-12T17:19:37.488Z,45.89
2023-01-12T17:22:05.730Z,45.74
2023-01-12T17:24:33.945Z,45.66
2023-01-12T17:27:01.183Z,45.99
2023-01-12T17:29:28.993Z,45.87
2023-01-12T17:32:06.682Z,45.35
2023-01-12T17:34:37.292Z,45.30
2023-01-12T17:37:08.523Z,44.98
2023-01-12T17:39:37.557Z,44.17
2023-01-12T17:42:08.192Z,43.91
2023-01-12T17:44:35.544Z,43.48
2023-01-12T17:47:03.026Z,42.88
2023-01-12T17:49:30.239Z,42.61
2023-01-12T17:51:58.118Z,42.55
2023-01-12T17:54:25.948Z,42.47
2023-01-12T17:56:54.173Z,42.17
2023-01-12T17:59:24.045Z,41.92
2023-01-12T18:01:52.521Z,42.27
2023-01-12T18:04:21.018Z,42.01
2023-01-12T18:06:48.255Z,41.84
2023-01-12T18:09:15.303Z,41.63
2023-01-12T18:11:42.899Z,41.98
2023-01-12T18:14:10.482Z,42.02
2023-01-12T18:16:37.597Z,42.01
2023-01-12T18:19:06.440Z,41.62
2023-01-12T18:21:34.216Z,42.01
2023-01-12T18:24:01.548Z,41.70
2023-01-12T18:26:31.003Z,42.05
2023-01-12T18:28:58.840Z,41.54
2023-01-12T18:31:27.330Z,41.98
2023-01-12T18:34:00.223Z,41.77
2023-01-12T18:36:27.760Z,42.21
2023-01-12T18:38:55.714Z,42.83
2023-01-12T18:41:26.292Z,42.72
2023-01-12T18:43:53.720Z,43.19
2023-01-12T18:46:21.011Z,43.15
2023-01-12T18:48:48.440Z,43.07
2023-01-12T18:51:19.107Z,43.45
2023-01-12T18:53:46.275Z,43.10
2023-01-12T18:56:14.451Z,43.25
2023-01-12T18:58:46.626Z,43.08
2023-01-12T19:01:19.903Z,42.99
2023-01-12T19:03:49.629Z,42.72
2023-01-12T19:06:22.072Z,42.99
2023-01-12T19:08:52.921Z,42.82
2023-01-12T19:11:20.125Z,42.54
2023-01-12T19:13:50.315Z,42.65
2023-01-12T19:16:20.627Z,42.63
2023-01-12T19:18:48.002Z,42.67
2023-01-12T19:21:18.607Z,42.59
2023-01-12T19:23:48.931Z,42.93
2023-01-12T19:26:19.054Z,42.79
2023-01-12T19:28:46.345Z,42.70
2023-01-12T19:31:16.081Z,42.63
2023-01-12T19:33:43.250Z,42.69
2023-01-12T19:36:11.376Z,42.41
2023-01-12T19:38:38.775Z,42.69
2023-01-12T19:41:10.951Z,42.60
2023-01-12T19:43:41.196Z,42.62
2023-01-12T19:46:08.469Z,43.08
2023-01-12T19:48:35.886Z,43.06
2023-01-12T19:51:10.463Z,43.08
2023-01-12T19:53:39.386Z,42.75
2023-01-12T19:56:09.634Z,43.21
2023-01-12T19:58:36.841Z,43.02
2023-01-12T20:01:04.076Z,43.05
2023-01-12T20:03:31.332Z,43.27
2023-01-12T20:05:58.676Z,43.14
2023-01-12T20:08:26.170Z,43.01
2023-01-12T20:10:54.489Z,43.18
2023-01-12T20:13:21.641Z,42.85
2023-01-12T20:15:50.614Z,43.07
2023-01-12T20:18:18.325Z,43.13
2023-01-12T20:20:45.842Z,42.93
2023-01-12T20:23:13.608Z,43.24
2023-01-12T20:25:41.724Z,43.01
2023-01-12T20:28:09.062Z,43.10
2023-01-12T20:30:38.520Z,43.30
2023-01-12T20:33:06.568Z,42.96
2023-01-12T20:35:35.355Z,43.00
2023-01-12T20:38:03.386Z,43.33
2023-01-12T20:40:30.513Z,43.09
2023-01-12T20:42:57.791Z,43.48
2023-01-12T20:45:25.076Z,43.56
2023-01-12T20:47:52.254Z,43.26
2023-01-12T20:50:19.411Z,43.67
2023-01-12T20:52:48.393Z,43.54
2023-01-12T20:55:15.958Z,43.84
2023-01-12T20:57:43.245Z,43.68
2023-01-12T21:00:11.290Z,43.93
2023-01-12T21:02:38.469Z,43.70
2023-01-12T21:05:08.565Z,43.67
2023-01-12T21:07:35.980Z,43.89
2023-01-12T21:10:03.093Z,43.90
2023-01-12T21:12:30.151Z,44.40
2023-01-12T21:14:57.154Z,44.55
2023-01-12T21:17:24.379Z,45.05
2023-01-12T21:19:51.405Z,45.04
2023-01-12T21:22:20.557Z,44.89
2023-01-12T21:24:47.947Z,45.22
2023-01-12T21:27:14.938Z,44.93
2023-01-12T21:29:42.376Z,44.77
2023-01-12T21:32:09.492Z,44.79
2023-01-12T21:34:36.471Z,44.36
2023-01-12T21:37:03.981Z,44.24
2023-01-12T21:39:30.869Z,43.82
2023-01-12T21:42:01.070Z,43.75
2023-01-12T21:44:28.146Z,43.59
2023-01-12T21:46:55.165Z,43.39
2023-01-12T21:49:22.226Z,43.25
2023-01-12T21:51:49.395Z,43.77
2023-01-12T21:54:16.653Z,43.44
2023-01-12T21:56:44.055Z,43.79
2023-01-12T21:59:11.813Z,43.68
2023-01-12T22:01:39.312Z,43.71
2023-01-12T22:04:06.394Z,43.55
2023-01-12T22:06:33.509Z,43.21
2023-01-12T22:09:00.467Z,43.41
2023-01-12T22:11:27.535Z,43.68
2023-01-12T22:13:54.455Z,43.33
2023-01-12T22:16:21.489Z,43.31
2023-01-12T22:18:49.999Z,43.26
2023-01-12T22:21:18.033Z,43.10
2023-01-12T22:23:45.265Z,43.07
2023-01-12T22:26:13.166Z,42.59
2023-01-12T22:28:41.151Z,42.41
2023-01-12T22:31:08.578Z,42.29
2023-01-12T22:33:35.547Z,42.20
2023-01-12T22:36:03.426Z,42.33
2023-01-12T22:38:30.483Z,42.41
2023-01-12T22:41:02.989Z,42.62
2023-01-12T22:43:30.042Z,42.40
2023-01-12T22:45:58.512Z,42.20
2023-01-12T22:48:26.275Z,42.36
2023-01-12T22:50:55.000Z,42.65
2023-01-12T22:53:24.315Z,42.49
2023-01-12T22:55:52.067Z,42.29
2023-01-12T22:58:19.073Z,41.96
2023-01-12T23:00:46.074Z,42.20
2023-01-12T23:03:14.088Z,42.08
2023-01-12T23:05:44.124Z,41.68
2023-01-12T23:08:11.119Z,42.07
2023-01-12T23:10:38.051Z,41.65
2023-01-12T23:13:08.133Z,41.67
2023-01-12T23:15:38.172Z,41.77
2023-01-12T23:18:05.808Z,41.40
2023-01-12T23:20:33.908Z,41.44
2023-01-12T23:23:01.003Z,41.38
2023-01-12T23:25:27.923Z,41.40
2023-01-12T23:27:54.943Z,41.57
2023-01-12T23:30:21.990Z,41.59
2023-01-12T23:32:49.265Z,41.57
2023-01-12T23:35:16.573Z,41.48
2023-01-12T23:37:45.014Z,41.48
2023-01-12T23:40:12.272Z,41.59
2023-01-12T23:42:39.635Z,41.86
2023-01-12T23:45:07.010Z,41.52
2023-01-12T23:47:33.975Z,41.70
2023-01-12T23:50:00.996Z,41.77
2023-01-12T23:52:27.894Z,41.83
2023-01-12T23:54:56.217Z,41.89
2023-01-12T23:57:23.423Z,42.06
2023-01-12T23:59:50.938Z,41.58
